KLNS

Lancaster Airport

Lancaster, Pennsylvania, USA
METAR KLNS 221453Z 15008KT 10SM BKN034 OVC065 19/17 A3010 RMK AO2 RAB1355E28 SLP191 P0001 60001 T01940167 58007
Observed Flight Rules
May-22 @ 14:53 UTC (23 minutes ago) Visual Flight Rules
Wind Visibility Clouds
150° at 8 knots 10 miles
  • Broken at 3,400' AGL
  • Overcast at 6,500' AGL
Temperatures Readings Precipitation
Current 19°C / 66°F
Dewpoint 17°C / 63°F
Humidity 88%
Altimeter 30.1" Hg
Pressure 1019.1 hPa
Elevation 125
Current Rain 0.01
METAR KLNS 221453Z 15008KT 10SM BKN034 OVC065 19/17 A3010 RMK AO2 RAB1355E28 SLP191 P0001 60001 T01940167 58007
Observed Flight Rules
May-22 @ 14:53 UTC
(23 minutes ago)
VFR
Wind Visibility
150° at 8 knots 10 miles
Clouds
  • Broken at 3,400' AGL
  • Overcast at 6,500' AGL
Temperature Dewpoint
19°C / 66°F 17°C / 63°F
Humidity Altimeter Pressure
88% 30.1" Hg 1019.1 hPa
Current Rain
0.01